Time;durP1;ratioP1;P1;durP2;ratioP2;P2;SDS_P1;SDS_P2;PMS_P1;PMS_P2;Temp;Humidity;BMP_temperature;BMP_pressure;BME280_temperature;BME280_humidity;BME280_pressure;Samples;Min_cycle;Max_cycle;Signal;HPM_P1;HPM_P2
2021/07/03 00:00:13;;;;;;;17.15;7.40;;;17.60;99.90;;;18.18;79.62;101180.97;4974617;28;20195;-77
2021/07/03 00:02:40;;;;;;;15.27;6.72;;;17.70;99.90;;;18.17;79.86;101181.91;4974896;28;20195;-78
2021/07/03 00:05:09;;;;;;;15.27;6.78;;;17.70;99.90;;;18.16;79.91;101180.19;4974949;28;20219;-78
2021/07/03 00:07:36;;;;;;;14.68;7.30;;;17.60;99.90;;;18.15;80.26;101187.28;4995700;28;20638;-74
2021/07/03 00:10:09;;;;;;;15.43;7.18;;;17.60;99.90;;;18.15;80.09;101187.28;4995931;28;20278;-78
2021/07/03 00:12:36;;;;;;;17.35;7.28;;;17.60;99.90;;;18.13;80.20;101191.84;5011205;28;20203;-77
2021/07/03 00:15:04;;;;;;;17.70;7.45;;;17.60;99.90;;;18.11;80.58;101190.22;4978353;28;20585;-77
2021/07/03 00:17:31;;;;;;;19.60;8.20;;;17.60;99.90;;;18.09;80.97;101189.47;5010877;28;20221;-77
2021/07/03 00:19:57;;;;;;;17.73;8.20;;;17.60;99.90;;;18.06;81.06;101197.59;5010973;28;20198;-76
2021/07/03 00:22:24;;;;;;;17.52;7.72;;;17.50;99.90;;;18.04;81.00;101191.53;5011023;28;20195;-76
2021/07/03 00:24:51;;;;;;;16.65;7.53;;;17.50;99.90;;;18.00;81.52;101190.88;4995953;28;20211;-76
2021/07/03 00:27:21;;;;;;;17.88;7.50;;;17.50;99.90;;;18.00;81.54;101195.34;4995382;28;20298;-76
2021/07/03 00:29:48;;;;;;;15.52;7.43;;;17.50;99.90;;;17.98;81.82;101190.13;4995801;28;20191;-77
2021/07/03 00:32:15;;;;;;;17.02;8.23;;;17.50;99.90;;;17.98;82.01;101194.56;4978698;28;20688;-75
2021/07/03 00:34:42;;;;;;;17.98;8.18;;;17.40;99.90;;;17.98;82.20;101197.22;4979274;28;20766;-76
2021/07/03 00:37:09;;;;;;;18.67;8.93;;;17.50;99.90;;;17.97;82.19;101198.16;4997209;28;20308;-77
2021/07/03 00:39:36;;;;;;;16.63;8.43;;;17.40;99.90;;;17.95;82.16;101198.25;4995658;28;20201;-76
2021/07/03 00:42:04;;;;;;;22.30;8.77;;;17.40;99.90;;;17.93;82.53;101194.00;5033839;28;20266;-76
2021/07/03 00:44:36;;;;;;;17.45;8.75;;;17.40;99.90;;;17.88;82.88;101196.94;4995692;28;20245;-76
2021/07/03 00:47:08;;;;;;;16.83;8.57;;;17.40;99.90;;;17.82;82.86;101202.56;4978515;28;20218;-75
2021/07/03 00:49:37;;;;;;;19.02;8.77;;;17.30;99.90;;;17.80;83.49;101198.31;4978118;28;20203;-76
2021/07/03 00:52:09;;;;;;;17.30;8.48;;;17.40;99.90;;;17.79;83.74;101197.47;4982001;28;20187;-78
2021/07/03 00:54:38;;;;;;;17.13;8.95;;;17.30;99.90;;;17.82;83.58;101201.72;5001413;28;20202;-76
2021/07/03 00:57:08;;;;;;;18.40;9.02;;;17.30;99.90;;;17.83;83.21;101190.19;4979902;28;20222;-76
2021/07/03 00:59:45;;;;;;;19.67;8.38;;;17.30;99.90;;;17.80;83.45;101193.03;4979721;28;20592;-77
2021/07/03 01:02:20;;;;;;;19.20;8.75;;;17.30;99.90;;;17.77;83.59;101191.41;4986002;28;20281;-76
2021/07/03 01:04:48;;;;;;;21.42;9.40;;;17.30;99.90;;;17.74;83.75;101193.38;4992436;28;20589;-77
2021/07/03 01:07:19;;;;;;;19.92;9.55;;;17.20;99.90;;;17.70;83.74;101192.69;4980659;28;20245;-76
2021/07/03 01:09:48;;;;;;;23.13;10.52;;;17.20;99.90;;;17.66;84.13;101196.50;4980147;28;20191;-77
2021/07/03 01:12:17;;;;;;;19.75;9.57;;;17.20;99.90;;;17.64;84.27;101192.22;4979438;28;20226;-77
2021/07/03 01:14:47;;;;;;;21.23;9.27;;;17.20;99.90;;;17.66;84.21;101195.63;4995057;28;20194;-75
2021/07/03 01:17:19;;;;;;;18.00;9.32;;;17.20;99.90;;;17.62;84.20;101191.44;4979482;28;20249;-76
2021/07/03 01:19:48;;;;;;;20.75;9.75;;;17.10;99.90;;;17.60;84.51;101190.72;4980725;28;20206;-76
2021/07/03 01:22:18;;;;;;;17.02;8.80;;;17.10;99.90;;;17.56;84.71;101186.53;4978436;28;20213;-76
2021/07/03 01:24:45;;;;;;;18.83;9.77;;;17.10;99.90;;;17.57;84.75;101193.50;4978268;28;20282;-76
2021/07/03 01:27:14;;;;;;;22.20;10.25;;;17.10;99.90;;;17.56;84.90;101191.81;5010688;28;20207;-77
2021/07/03 01:29:44;;;;;;;19.67;9.85;;;17.10;99.90;;;17.55;84.36;101193.59;4978802;28;20191;-77
2021/07/03 01:32:12;;;;;;;19.27;9.95;;;17.00;99.90;;;17.51;84.67;101202.69;4978787;28;20195;-77
2021/07/03 01:34:40;;;;;;;20.00;9.73;;;17.00;99.90;;;17.45;84.88;101190.66;4995737;28;20209;-76
2021/07/03 01:37:13;;;;;;;19.38;9.20;;;17.00;99.90;;;17.43;85.18;101192.50;4978131;28;20225;-76
2021/07/03 01:39:49;;;;;;;21.70;10.50;;;16.90;99.90;;;17.42;85.27;101187.28;5011255;28;20191;-75
2021/07/03 01:42:16;;;;;;;24.83;11.07;;;16.90;99.90;;;17.39;85.38;101179.53;4999307;28;20237;-76
2021/07/03 01:44:45;;;;;;;20.17;10.73;;;16.90;99.90;;;17.35;85.37;101186.78;4981324;28;20239;-76
2021/07/03 01:47:13;;;;;;;20.73;10.57;;;16.90;99.90;;;17.36;85.86;101182.38;4978557;28;20202;-76
2021/07/03 01:49:46;;;;;;;23.20;10.18;;;16.90;99.90;;;17.34;85.55;101179.81;4982277;28;20194;-77
2021/07/03 01:52:17;;;;;;;22.42;10.55;;;16.80;99.90;;;17.35;85.63;101186.78;4981280;28;20629;-77
2021/07/03 01:54:47;;;;;;;22.35;10.57;;;16.80;99.90;;;17.34;85.71;101182.47;4997656;28;20179;-76
2021/07/03 01:57:14;;;;;;;19.40;9.98;;;16.80;99.90;;;17.34;85.80;101181.59;4977393;28;20261;-76
2021/07/03 02:00:03;;;;;;;21.17;10.38;;;16.80;99.90;;;17.31;85.89;101179.13;4994033;28;20211;-76
2021/07/03 02:02:32;;;;;;;20.95;10.95;;;16.80;99.90;;;17.32;85.83;101179.03;4979344;28;20199;-76
2021/07/03 02:04:59;;;;;;;23.30;10.60;;;16.80;99.90;;;17.31;85.64;101179.13;4977733;28;20239;-77
2021/07/03 02:07:26;;;;;;;23.73;11.00;;;16.80;99.90;;;17.28;85.91;101174.03;4978293;28;20215;-76
2021/07/03 02:09:55;;;;;;;22.40;10.48;;;16.70;99.90;;;17.26;85.64;101173.25;4977928;28;20731;-76
2021/07/03 02:12:25;;;;;;;22.50;9.90;;;16.70;99.90;;;17.24;86.02;101175.13;5009994;28;20194;-77
2021/07/03 02:15:09;;;;;;;20.83;10.70;;;16.70;99.90;;;17.19;85.99;101178.06;5010839;28;20194;-76
2021/07/03 02:17:38;;;;;;;20.13;10.52;;;16.70;99.90;;;17.19;86.26;101171.91;4994788;28;20293;-77
2021/07/03 02:20:14;;;;;;;22.27;10.45;;;16.70;99.90;;;17.17;86.05;101172.00;5010699;28;20198;-76
2021/07/03 02:23:01;;;;;;;22.98;10.45;;;16.70;99.90;;;17.17;86.63;101171.13;4977758;28;20289;-77
2021/07/03 02:25:33;;;;;;;26.02;10.88;;;16.60;99.90;;;17.16;86.33;101175.56;4976903;28;20241;-76
2021/07/03 02:28:08;;;;;;;22.73;10.55;;;16.60;99.90;;;17.13;86.48;101175.75;4977504;28;20214;-77
2021/07/03 02:30:42;;;;;;;22.15;11.13;;;16.60;99.90;;;17.11;86.38;101177.59;4976926;28;20573;-77
2021/07/03 02:33:11;;;;;;;19.55;10.30;;;16.60;99.90;;;17.07;86.70;101168.16;5008873;28;20198;-77
2021/07/03 02:35:39;;;;;;;21.88;10.90;;;16.60;99.90;;;17.06;86.51;101171.72;4976615;28;20195;-76
2021/07/03 02:38:06;;;;;;;22.52;11.18;;;16.60;99.90;;;17.03;86.49;101158.69;4976883;28;20653;-75
2021/07/03 02:40:35;;;;;;;21.83;10.40;;;16.50;99.90;;;17.05;86.78;101166.53;4977748;28;20700;-77
2021/07/03 02:43:04;;;;;;;22.40;10.82;;;16.50;99.90;;;17.05;86.69;101161.25;4978084;28;20285;-76
2021/07/03 02:45:31;;;;;;;22.95;10.85;;;16.50;99.90;;;17.02;86.56;101161.44;4977499;28;20231;-76
2021/07/03 02:47:59;;;;;;;22.70;11.68;;;16.50;99.90;;;17.00;86.86;101164.16;4994380;28;20203;-77
2021/07/03 02:50:26;;;;;;;21.67;11.25;;;16.50;99.90;;;17.00;87.05;101152.72;5009233;28;20685;-77
2021/07/03 02:52:57;;;;;;;22.33;11.23;;;16.50;99.90;;;16.99;86.93;101162.47;4994338;28;20183;-76
2021/07/03 02:55:25;;;;;;;22.02;11.43;;;16.50;99.90;;;16.98;86.73;101167.84;4976948;28;20201;-75
2021/07/03 02:57:55;;;;;;;23.98;11.57;;;16.50;99.90;;;16.95;86.79;101162.69;4993351;28;20205;-77
2021/07/03 03:00:23;;;;;;;21.77;10.82;;;16.40;99.90;;;16.93;87.07;101164.59;4977376;28;20206;-77
2021/07/03 03:02:52;;;;;;;23.42;11.07;;;16.50;99.90;;;16.95;87.29;101163.56;4976393;28;20269;-76
2021/07/03 03:05:20;;;;;;;22.52;10.77;;;16.40;99.90;;;16.97;87.27;101163.47;4977093;28;20282;-78
2021/07/03 03:07:47;;;;;;;23.35;11.25;;;16.40;99.90;;;16.96;87.13;101159.13;4976889;28;20561;-77
2021/07/03 03:10:17;;;;;;;23.60;11.63;;;16.50;99.90;;;16.96;87.18;101170.53;4976529;28;20223;-76
2021/07/03 03:12:48;;;;;;;26.60;11.60;;;16.40;99.90;;;16.94;87.25;101163.66;5008988;28;20245;-77
2021/07/03 03:15:20;;;;;;;22.48;11.55;;;16.40;99.90;;;16.91;87.58;101164.66;4976498;28;20198;-77
2021/07/03 03:17:49;;;;;;;23.33;11.15;;;16.40;99.90;;;16.89;87.29;101166.56;5008628;28;20214;-77
2021/07/03 03:20:16;;;;;;;22.77;10.68;;;16.40;99.90;;;16.91;87.37;101166.47;4976650;28;20191;-77
2021/07/03 03:22:43;;;;;;;22.95;11.50;;;16.40;99.90;;;16.89;87.45;101166.56;4976396;28;20209;-77
2021/07/03 03:25:13;;;;;;;23.80;11.70;;;16.30;99.90;;;16.84;87.42;101168.63;4976832;28;20284;-77
2021/07/03 03:27:40;;;;;;;22.25;11.20;;;16.30;99.90;;;16.79;87.48;101170.66;4976942;28;20221;-77
2021/07/03 03:30:10;;;;;;;23.55;11.65;;;16.30;99.90;;;16.79;87.81;101165.38;4976573;28;20214;-76
2021/07/03 03:32:42;;;;;;;25.33;12.15;;;16.30;99.90;;;16.80;87.75;101168.84;4976889;28;20257;-76
2021/07/03 03:35:10;;;;;;;19.88;11.35;;;16.30;99.90;;;16.77;87.87;101167.25;4976994;28;20198;-76
2021/07/03 03:37:38;;;;;;;24.48;11.57;;;16.30;99.90;;;16.78;87.96;101174.22;4976283;28;20226;-76
2021/07/03 03:40:09;;;;;;;27.45;12.13;;;16.30;99.90;;;16.78;87.83;101176.03;4994610;28;20182;-77
2021/07/03 03:42:36;;;;;;;23.48;12.38;;;16.30;99.90;;;16.74;87.56;101175.34;4980975;28;20881;-76
2021/07/03 03:45:06;;;;;;;26.73;11.93;;;16.20;99.90;;;16.73;87.96;101178.91;5005255;28;20224;-77
2021/07/03 03:47:34;;;;;;;22.90;11.93;;;16.20;99.90;;;16.73;88.23;101176.28;4998065;28;20285;-77
2021/07/03 03:50:05;;;;;;;25.05;12.20;;;16.30;99.90;;;16.77;88.36;101183.13;5032342;28;20358;-77
2021/07/03 03:52:31;;;;;;;27.33;12.40;;;16.30;99.90;;;16.76;88.19;101180.56;4980853;28;20589;-76
2021/07/03 03:54:59;;;;;;;23.63;11.55;;;16.30;99.90;;;16.74;88.17;101166.56;4979694;28;20277;-76
2021/07/03 03:57:30;;;;;;;24.67;11.95;;;16.30;99.90;;;16.76;88.12;101176.09;4979481;28;20222;-77
2021/07/03 04:00:02;;;;;;;25.90;12.75;;;16.30;99.90;;;16.78;88.07;101173.41;4979891;28;20198;-77
2021/07/03 04:02:30;;;;;;;24.65;12.18;;;16.30;99.90;;;16.78;87.92;101171.59;4997064;28;20278;-76
2021/07/03 04:04:57;;;;;;;24.50;12.15;;;16.30;99.90;;;16.80;88.22;101171.50;4979299;28;20238;-77
2021/07/03 04:07:25;;;;;;;24.73;12.52;;;16.40;99.90;;;16.81;87.82;101160.00;5011554;28;20207;-77
2021/07/03 04:09:55;;;;;;;25.88;12.82;;;16.40;99.90;;;16.85;88.00;101162.38;4979994;28;20286;-76
2021/07/03 04:12:22;;;;;;;24.77;12.07;;;16.40;99.90;;;16.89;87.72;101166.56;5011569;28;20287;-77
2021/07/03 04:14:49;;;;;;;24.15;11.85;;;16.40;99.90;;;16.95;87.71;101176.78;4997436;28;20194;-76
2021/07/03 04:17:16;;;;;;;24.25;11.82;;;16.50;99.90;;;16.95;87.54;101174.16;4979402;28;20217;-77
2021/07/03 04:19:44;;;;;;;26.13;13.48;;;16.50;99.90;;;16.97;87.97;101161.69;4979432;28;20206;-76
2021/07/03 04:22:11;;;;;;;27.95;12.60;;;16.50;99.90;;;17.02;87.92;101172.88;5011676;28;20201;-77
2021/07/03 04:24:39;;;;;;;23.23;12.00;;;16.50;99.90;;;17.06;87.34;101174.38;4978883;28;20222;-76
2021/07/03 04:27:06;;;;;;;24.30;11.60;;;16.60;99.90;;;17.07;87.43;101164.66;4997233;28;20207;-76
2021/07/03 04:29:33;;;;;;;26.95;11.65;;;16.60;99.90;;;17.09;87.30;101168.94;4996836;28;20183;-77
2021/07/03 04:32:00;;;;;;;23.67;11.82;;;16.60;99.90;;;17.12;87.33;101170.53;4978898;28;20228;-77
2021/07/03 04:34:27;;;;;;;27.05;12.50;;;16.70;99.90;;;17.13;87.32;101172.25;4979483;28;20205;-77
2021/07/03 04:36:54;;;;;;;23.90;12.10;;;16.70;99.90;;;17.14;87.34;101172.16;4978893;28;20198;-76
2021/07/03 04:39:21;;;;;;;23.80;11.90;;;16.70;99.90;;;17.19;87.31;101177.19;4979413;28;20221;-76
2021/07/03 04:41:50;;;;;;;24.10;12.10;;;16.80;99.90;;;17.21;87.26;101177.97;4979908;28;20206;-76
2021/07/03 04:44:18;;;;;;;24.58;12.93;;;16.80;99.90;;;17.18;87.20;101171.03;4979277;28;20186;-76
2021/07/03 04:46:45;;;;;;;23.25;12.45;;;16.80;99.90;;;17.21;87.06;101173.50;4995501;28;20238;-76
2021/07/03 04:49:13;;;;;;;27.27;12.00;;;16.80;99.90;;;17.26;86.98;101174.09;4980876;28;20199;-77
2021/07/03 04:51:40;;;;;;;31.70;12.10;;;16.80;99.90;;;17.31;86.96;101171.19;4979613;28;20637;-77
2021/07/03 04:54:07;;;;;;;25.27;11.38;;;16.90;99.90;;;17.35;86.63;101173.56;4997347;28;20213;-76
2021/07/03 04:56:34;;;;;;;23.48;11.95;;;16.90;99.90;;;17.40;86.65;101170.66;5012698;28;20201;-77
2021/07/03 04:59:02;;;;;;;24.52;11.63;;;17.00;99.90;;;17.46;86.46;101170.34;4997209;28;20211;-77
2021/07/03 05:01:29;;;;;;;25.25;12.88;;;17.00;99.90;;;17.51;86.11;101171.75;4996347;28;20186;-77
2021/07/03 05:03:56;;;;;;;22.13;11.57;;;17.10;99.90;;;17.56;86.39;101168.84;4979647;28;20206;-76
2021/07/03 05:06:23;;;;;;;23.20;12.15;;;17.20;99.90;;;17.63;86.13;101169.34;4996859;28;20214;-77
2021/07/03 05:08:50;;;;;;;25.90;12.00;;;17.20;99.90;;;17.72;86.00;101179.38;5011663;28;20222;-76
2021/07/03 05:11:17;;;;;;;22.75;11.52;;;17.30;99.90;;;17.81;85.93;101171.75;4978456;28;20199;-77
2021/07/03 05:13:44;;;;;;;21.75;12.13;;;17.40;99.90;;;17.86;85.33;101174.97;4996885;28;20190;-77
2021/07/03 05:16:12;;;;;;;21.50;11.27;;;17.50;99.90;;;17.92;85.26;101171.06;4979526;28;20198;-75
2021/07/03 05:18:39;;;;;;;23.52;11.00;;;17.60;99.90;;;17.96;85.18;101173.47;4997027;28;20578;-76
2021/07/03 05:21:06;;;;;;;22.58;11.63;;;17.60;99.90;;;17.98;85.19;101176.03;4978222;28;20568;-76
2021/07/03 05:23:33;;;;;;;21.50;11.52;;;17.70;99.90;;;18.00;84.69;101168.84;4994823;28;20198;-77
2021/07/03 05:26:00;;;;;;;23.17;10.90;;;17.70;99.90;;;18.03;84.67;101168.66;4997030;28;20207;-77
2021/07/03 05:28:26;;;;;;;22.05;11.98;;;17.70;99.90;;;18.04;84.55;101170.34;4979204;28;20314;-76
2021/07/03 05:30:54;;;;;;;19.90;10.88;;;17.70;99.90;;;18.06;84.38;101171.09;4995786;28;20206;-76
2021/07/03 05:33:22;;;;;;;21.95;11.55;;;17.70;99.90;;;18.06;84.29;101181.69;4988913;28;20195;-77
2021/07/03 05:35:48;;;;;;;22.65;11.20;;;17.70;99.90;;;18.04;84.04;101180.94;5019889;28;20167;-77
2021/07/03 05:38:15;;;;;;;23.23;11.32;;;17.70;99.90;;;18.03;84.39;101180.09;5019396;28;20258;-76
2021/07/03 05:40:42;;;;;;;23.58;11.68;;;17.70;99.90;;;18.06;83.92;101181.69;5019002;28;20187;-77
2021/07/03 05:43:09;;;;;;;22.35;11.27;;;17.70;99.90;;;18.09;83.88;101178.84;5009527;28;20195;-76
2021/07/03 05:45:36;;;;;;;23.73;10.88;;;17.70;99.90;;;18.08;84.14;101182.47;5012381;28;20218;-77
2021/07/03 05:48:04;;;;;;;25.33;11.35;;;17.70;99.90;;;18.05;83.80;101183.50;4991861;28;20671;-77
2021/07/03 05:50:33;;;;;;;21.50;11.68;;;17.70;99.90;;;18.00;83.61;101182.91;4980772;28;20191;-78
2021/07/03 05:53:00;;;;;;;25.27;11.45;;;17.70;99.90;;;18.01;83.78;101191.72;5013493;28;20201;-78
2021/07/03 05:55:27;;;;;;;21.55;11.00;;;17.70;99.90;;;18.03;83.75;101187.19;4980262;28;20199;-77
2021/07/03 05:57:54;;;;;;;23.33;11.70;;;17.70;99.90;;;18.09;83.67;101184.16;4977921;28;20215;-77
2021/07/03 06:00:22;;;;;;;25.45;11.02;;;17.80;99.90;;;18.17;83.23;101181.91;5010151;28;20571;-76
2021/07/03 06:02:48;;;;;;;20.67;10.48;;;17.90;99.90;;;18.30;83.17;101190.81;4978690;28;20198;-77
2021/07/03 06:05:16;;;;;;;24.98;11.23;;;18.00;99.90;;;18.40;82.87;101174.25;5009745;28;20555;-75
2021/07/03 06:07:44;;;;;;;20.02;10.38;;;18.20;99.90;;;18.47;82.73;101174.75;4994898;28;20217;-77
2021/07/03 06:10:13;;;;;;;23.20;11.02;;;18.20;99.90;;;18.53;82.67;101174.34;4977653;28;20197;-77
2021/07/03 06:12:40;;;;;;;20.05;10.35;;;18.30;99.90;;;18.63;82.08;101180.78;4977706;28;20201;-75
2021/07/03 06:15:11;;;;;;;21.00;10.63;;;18.40;99.90;;;18.74;82.05;101175.63;5010203;28;20600;-76
2021/07/03 06:17:38;;;;;;;19.38;10.25;;;18.60;99.90;;;18.84;81.75;101184.69;4976795;28;20228;-77
2021/07/03 06:20:09;;;;;;;23.02;10.25;;;18.70;99.90;;;18.95;81.03;101176.94;4994677;28;20198;-76
2021/07/03 06:22:35;;;;;;;19.10;10.15;;;18.80;99.90;;;19.00;80.78;101176.63;4977951;28;20222;-75
2021/07/03 06:25:06;;;;;;;19.95;10.57;;;18.90;99.90;;;19.04;80.66;101171.00;4995039;28;20190;-76
2021/07/03 06:27:33;;;;;;;19.40;10.38;;;19.00;99.90;;;19.09;80.27;101179.50;4976797;28;20248;-76
2021/07/03 06:30:01;;;;;;;20.98;10.65;;;19.00;99.90;;;19.09;79.91;101182.16;5009826;28;20206;-76
2021/07/03 06:32:28;;;;;;;20.00;10.27;;;19.00;99.90;;;19.05;79.96;101169.22;4978028;28;20198;-76
2021/07/03 06:34:54;;;;;;;20.35;10.60;;;19.00;99.90;;;19.01;79.90;101167.69;4995471;28;20561;-76
2021/07/03 06:37:21;;;;;;;21.00;10.98;;;18.90;99.90;;;19.01;79.80;101168.56;4994843;28;20248;-76
2021/07/03 06:39:48;;;;;;;24.95;11.45;;;18.90;99.90;;;19.04;79.70;101171.00;4995199;28;20194;-75
2021/07/03 06:42:17;;;;;;;20.92;9.93;;;18.90;99.90;;;19.10;79.38;101173.28;5005318;28;20191;-77
2021/07/03 06:44:45;;;;;;;18.65;9.43;;;19.00;99.90;;;19.18;79.27;101168.31;4983269;28;20298;-76
2021/07/03 06:47:12;;;;;;;19.10;9.52;;;19.00;99.90;;;19.27;79.23;101175.69;4999778;28;20214;-77
2021/07/03 06:49:39;;;;;;;21.15;9.65;;;19.10;99.90;;;19.34;78.39;101176.97;4994375;28;20179;-77
2021/07/03 06:52:07;;;;;;;21.40;9.23;;;19.10;99.90;;;19.40;78.16;101173.94;4998795;28;20204;-77
2021/07/03 06:54:34;;;;;;;19.30;9.05;;;19.20;99.90;;;19.46;78.26;101173.53;5013755;28;20191;-76
2021/07/03 06:57:01;;;;;;;19.13;9.65;;;19.30;99.90;;;19.53;77.59;101171.28;4977502;28;20213;-77
2021/07/03 06:59:30;;;;;;;21.70;10.05;;;19.30;99.90;;;19.56;77.32;101179.06;4977448;28;20206;-76
2021/07/03 07:01:58;;;;;;;19.02;9.05;;;19.40;99.90;;;19.57;77.09;101173.66;4980846;28;20195;-78
2021/07/03 07:04:25;;;;;;;20.77;9.52;;;19.40;99.90;;;19.64;77.33;101168.78;4995240;28;20197;-77
2021/07/03 07:06:56;;;;;;;18.75;9.43;;;19.50;99.90;;;19.73;76.86;101176.97;4996824;28;20232;-76
2021/07/03 07:09:24;;;;;;;21.02;9.55;;;19.60;99.90;;;19.80;76.67;101166.78;4995500;28;20266;-76
2021/07/03 07:11:52;;;;;;;20.63;10.15;;;19.70;99.90;;;19.86;76.16;101167.22;5011812;28;20189;-76
2021/07/03 07:14:20;;;;;;;21.35;9.30;;;19.70;99.90;;;19.96;75.68;101172.72;4997209;28;20297;-77
2021/07/03 07:16:48;;;;;;;18.75;8.82;;;20.00;99.90;;;20.09;75.37;101162.13;4996784;28;20206;-76
2021/07/03 07:19:15;;;;;;;17.75;8.35;;;20.50;99.90;;;20.19;75.21;101157.88;5001376;28;20253;-76
2021/07/03 07:21:41;;;;;;;18.70;9.18;;;20.90;99.90;;;20.31;74.74;101165.00;4982962;28;20206;-75
2021/07/03 07:24:08;;;;;;;18.50;8.52;;;21.40;99.90;;;20.42;74.63;101165.09;4982401;28;20692;-76
2021/07/03 07:26:36;;;;;;;18.88;8.57;;;21.80;99.90;;;20.50;74.34;101166.25;5016067;28;20230;-77
2021/07/03 07:29:03;;;;;;;18.20;8.75;;;22.10;99.90;;;20.58;74.49;101165.72;4993557;28;20218;-76
2021/07/03 07:31:30;;;;;;;16.60;8.15;;;22.20;99.90;;;20.61;74.41;101161.03;4992985;28;20187;-77
2021/07/03 07:33:58;;;;;;;16.42;8.20;;;21.90;99.90;;;20.63;74.09;101158.25;4975818;28;20195;-77
2021/07/03 07:36:25;;;;;;;17.77;8.75;;;21.60;99.90;;;20.64;73.69;101160.78;4992860;28;20195;-76
2021/07/03 07:38:52;;;;;;;16.77;8.52;;;21.50;99.90;;;20.63;73.76;101159.06;4992964;28;20217;-76
2021/07/03 07:41:19;;;;;;;17.30;7.88;;;21.20;99.90;;;20.62;73.32;101156.53;4992928;28;20187;-76
2021/07/03 07:43:46;;;;;;;17.83;8.82;;;21.00;99.90;;;20.63;73.05;101155.59;4976323;28;20206;-77
2021/07/03 07:46:12;;;;;;;17.90;8.10;;;21.00;99.90;;;20.62;73.16;101156.53;4994037;28;20217;-75
2021/07/03 07:48:41;;;;;;;19.67;9.02;;;20.90;99.90;;;20.64;73.66;101149.28;5011739;28;20210;-76
2021/07/03 07:51:09;;;;;;;19.10;9.02;;;20.80;99.90;;;20.69;73.53;101147.16;5002176;28;20261;-77
2021/07/03 07:53:36;;;;;;;17.23;8.90;;;20.90;99.90;;;20.80;73.48;101149.88;4976740;28;20202;-77
2021/07/03 07:56:03;;;;;;;16.48;9.15;;;21.00;99.90;;;20.83;73.05;101149.66;4993357;28;20191;-74
2021/07/03 07:58:30;;;;;;;16.58;8.27;;;21.00;99.90;;;20.88;72.71;101148.34;5013280;28;20234;-77
2021/07/03 08:00:57;;;;;;;16.23;7.55;;;21.00;99.90;;;20.98;72.34;101153.91;5002123;28;20198;-76
2021/07/03 08:03:24;;;;;;;15.25;7.03;;;21.10;99.90;;;21.10;72.45;101158.31;5014801;28;20191;-77
2021/07/03 08:05:51;;;;;;;16.00;7.75;;;21.20;99.90;;;21.18;71.93;101151.44;4983839;28;20210;-78
2021/07/03 08:08:19;;;;;;;15.13;8.07;;;21.30;99.90;;;21.17;71.04;101148.91;4991896;28;20286;-77
2021/07/03 08:10:46;;;;;;;20.05;8.52;;;21.30;99.90;;;21.11;70.82;101152.03;4998991;28;20270;-76
2021/07/03 08:13:13;;;;;;;15.65;7.07;;;21.30;99.90;;;21.12;70.93;101141.25;4979383;28;20199;-77
2021/07/03 08:15:40;;;;;;;15.50;7.13;;;21.30;99.90;;;21.20;70.21;101147.84;4979189;28;20226;-77
2021/07/03 08:18:07;;;;;;;17.80;7.80;;;21.40;99.90;;;21.23;70.05;101145.78;4977621;28;20273;-77
2021/07/03 08:20:35;;;;;;;16.73;7.53;;;21.40;99.90;;;21.17;70.20;101149.75;4979373;28;20195;-77
2021/07/03 08:23:02;;;;;;;19.05;8.25;;;21.30;99.90;;;21.18;70.23;101148.78;4978724;28;20206;-78
2021/07/03 08:25:30;;;;;;;18.38;8.90;;;21.30;99.90;;;21.32;69.81;101147.75;4996571;28;20658;-77
2021/07/03 08:27:57;;;;;;;15.50;7.10;;;21.50;99.90;;;21.47;69.67;101156.44;5000299;28;20221;-77
2021/07/03 08:30:28;;;;;;;18.38;9.88;;;21.60;99.90;;;21.45;69.25;101153.84;5003337;28;20201;-77
2021/07/03 08:32:55;;;;;;;14.63;7.65;;;21.60;99.90;;;21.35;68.95;101146.69;5001410;28;20210;-77
2021/07/03 08:35:22;;;;;;;13.93;7.65;;;21.50;99.90;;;21.38;68.75;101151.78;5011478;28;20210;-77
2021/07/03 08:37:49;;;;;;;15.15;7.45;;;21.60;99.90;;;21.39;68.39;101151.66;5024910;28;20249;-76
2021/07/03 08:40:17;;;;;;;14.93;6.95;;;21.60;99.90;;;21.40;68.56;101161.34;4986700;28;20194;-77
2021/07/03 08:42:46;;;;;;;16.88;7.95;;;21.60;99.90;;;21.33;68.76;101146.81;4985329;28;20201;-76
2021/07/03 08:45:14;;;;;;;14.70;7.57;;;21.50;99.90;;;21.26;68.85;101144.69;4986180;28;20266;-77
2021/07/03 08:47:44;;;;;;;15.82;7.78;;;21.40;99.90;;;21.21;68.88;101145.06;5001342;28;20270;-77
2021/07/03 08:50:16;;;;;;;15.52;7.20;;;21.40;99.90;;;21.28;69.13;101138.31;5021581;28;20616;-77
2021/07/03 08:52:43;;;;;;;15.90;7.40;;;21.40;99.90;;;21.42;68.84;101143.44;5011628;28;20183;-77
2021/07/03 08:55:15;;;;;;;14.75;7.38;;;21.50;99.90;;;21.59;68.66;101129.69;4988335;28;20254;-78
2021/07/03 08:57:49;;;;;;;15.52;7.43;;;21.70;99.90;;;21.76;68.23;101126.56;4985271;28;20261;-77
2021/07/03 09:00:19;;;;;;;17.98;8.55;;;21.90;99.90;;;21.80;67.20;101121.91;5005969;28;20198;-77
2021/07/03 09:02:47;;;;;;;15.02;7.95;;;22.00;99.90;;;21.69;67.41;101125.34;5008721;28;20443;-78
2021/07/03 09:05:24;;;;;;;16.02;7.18;;;21.90;99.90;;;21.66;67.43;101125.59;5015538;28;20178;-78
2021/07/03 09:07:56;;;;;;;16.02;6.75;;;21.90;99.90;;;21.73;67.78;101118.81;5019260;28;20210;-77
2021/07/03 09:10:25;;;;;;;17.70;7.45;;;22.00;99.90;;;21.87;67.15;101126.63;5002754;28;20222;-77
2021/07/03 09:12:55;;;;;;;14.88;7.43;;;22.10;99.90;;;22.01;66.96;101115.72;5017692;28;20183;-78
2021/07/03 09:15:25;;;;;;;17.25;8.35;;;22.30;99.90;;;22.11;66.27;101113.19;5019944;28;20235;-76
2021/07/03 09:17:55;;;;;;;15.88;7.65;;;22.40;99.90;;;22.06;66.77;101108.22;5003191;28;20202;-77
2021/07/03 09:20:30;;;;;;;15.73;6.82;;;22.30;99.90;;;22.04;66.73;101110.16;5020796;28;20190;-75
2021/07/03 09:23:09;;;;;;;14.95;7.55;;;22.30;99.90;;;22.18;66.84;101109.91;5020606;28;20190;-77
2021/07/03 09:25:38;;;;;;;16.73;7.93;;;22.50;99.90;;;22.36;66.49;101111.13;5020324;28;20174;-75
2021/07/03 09:28:14;;;;;;;18.30;9.52;;;22.70;99.90;;;22.38;66.20;101106.50;5001257;28;20248;-77
2021/07/03 09:30:47;;;;;;;14.45;7.18;;;22.80;99.90;;;22.23;66.41;101105.06;5001269;28;20225;-76
2021/07/03 09:33:18;;;;;;;12.38;6.50;;;22.60;99.90;;;22.09;66.88;101101.78;5019639;28;20167;-76
2021/07/03 09:35:52;;;;;;;13.95;7.50;;;22.40;99.90;;;22.05;66.85;101098.50;5019759;28;20166;-78
2021/07/03 09:38:30;;;;;;;17.55;7.32;;;22.30;99.90;;;21.94;66.58;101101.19;5018375;28;20266;-77
2021/07/03 09:41:08;;;;;;;16.27;7.07;;;22.20;99.90;;;22.00;66.47;101092.69;5018493;28;20190;-77
2021/07/03 09:43:37;;;;;;;13.05;6.35;;;22.20;99.90;;;22.02;66.34;101089.94;5019005;28;20175;-77
2021/07/03 09:46:04;;;;;;;13.00;6.32;;;22.20;99.90;;;21.95;65.99;101089.53;5017583;28;20250;-77
2021/07/03 09:48:31;;;;;;;19.65;6.75;;;22.20;99.90;;;21.91;65.86;101085.44;5019341;28;20205;-77
2021/07/03 09:51:09;;;;;;;12.48;6.07;;;22.10;99.90;;;22.04;65.35;101083.50;5019386;28;20175;-76
2021/07/03 09:53:37;;;;;;;12.38;5.95;;;22.30;99.90;;;22.22;64.65;101094.53;5002536;28;20202;-77
2021/07/03 09:56:05;;;;;;;13.20;6.63;;;22.50;99.90;;;22.24;64.23;101096.09;5018054;28;20310;-76
2021/07/03 09:58:35;;;;;;;15.52;6.65;;;22.50;99.90;;;22.19;64.34;101092.06;5015098;28;20207;-78
2021/07/03 10:01:03;;;;;;;11.32;5.55;;;22.50;99.90;;;22.31;64.65;101091.97;4995941;28;20203;-79
2021/07/03 10:03:32;;;;;;;13.45;5.60;;;22.60;99.90;;;22.53;63.07;101087.56;5000118;28;20206;-75
2021/07/03 10:06:02;;;;;;;14.88;5.70;;;22.80;99.90;;;22.70;61.75;101087.91;5015957;28;20246;-78
2021/07/03 10:08:31;;;;;;;10.82;4.90;;;23.00;99.90;;;22.90;60.88;101087.13;4990389;28;20258;-77